createdAt,value
2023-03-14T00:02:00.951Z,2.75
2023-03-14T00:04:27.675Z,2.40
2023-03-14T00:06:54.418Z,2.30
2023-03-14T00:09:21.178Z,2.60
2023-03-14T00:11:47.876Z,2.40
2023-03-14T00:14:16.441Z,2.28
2023-03-14T00:16:43.412Z,2.53
2023-03-14T00:19:10.138Z,2.30
2023-03-14T00:21:36.930Z,2.60
2023-03-14T00:24:03.695Z,2.40
2023-03-14T00:26:30.385Z,2.60
2023-03-14T00:28:57.164Z,2.35
2023-03-14T00:31:24.026Z,2.30
2023-03-14T00:33:53.694Z,2.30
2023-03-14T00:36:21.388Z,2.25
2023-03-14T00:38:50.189Z,2.40
2023-03-14T00:41:23.234Z,2.50
2023-03-14T00:43:50.715Z,2.00
2023-03-14T00:46:17.912Z,2.40
2023-03-14T00:48:47.738Z,2.35
2023-03-14T00:51:16.012Z,2.28
2023-03-14T00:53:44.467Z,2.00
2023-03-14T00:56:12.890Z,2.10
2023-03-14T00:58:40.244Z,2.40
2023-03-14T01:01:08.987Z,2.20
2023-03-14T01:03:35.792Z,2.03
2023-03-14T01:06:20.440Z,2.10
2023-03-14T01:08:47.260Z,2.15
2023-03-14T01:11:26.802Z,1.98
2023-03-14T01:13:54.224Z,1.80
2023-03-14T01:16:22.485Z,1.80
2023-03-14T01:18:49.663Z,2.15
2023-03-14T01:21:20.824Z,1.83
2023-03-14T01:23:48.331Z,2.08
2023-03-14T01:26:19.847Z,2.20
2023-03-14T01:28:47.540Z,2.03
2023-03-14T01:31:14.645Z,1.90
2023-03-14T01:33:42.180Z,1.98
2023-03-14T01:36:10.930Z,1.90
2023-03-14T01:38:39.328Z,2.03
2023-03-14T01:41:08.851Z,2.10
2023-03-14T01:43:35.590Z,1.88
2023-03-14T01:46:05.416Z,2.00
2023-03-14T01:49:05.248Z,1.90
2023-03-14T01:51:51.811Z,1.67
2023-03-14T01:54:30.087Z,1.90
2023-03-14T01:57:08.587Z,1.58
2023-03-14T01:59:36.118Z,1.90
2023-03-14T02:02:06.994Z,1.80
2023-03-14T02:04:39.304Z,1.73
2023-03-14T02:07:23.823Z,1.70
2023-03-14T02:10:00.349Z,1.50
2023-03-14T02:12:31.552Z,1.58
2023-03-14T02:15:12.561Z,1.88
2023-03-14T02:18:06.754Z,1.52
2023-03-14T02:21:18.621Z,1.75
2023-03-14T02:24:02.363Z,1.90
2023-03-14T02:26:39.912Z,1.85
2023-03-14T02:29:06.672Z,1.80
2023-03-14T02:31:33.745Z,1.63
2023-03-14T02:34:01.178Z,1.73
2023-03-14T02:36:30.746Z,1.70
2023-03-14T02:39:13.352Z,1.73
2023-03-14T02:41:43.540Z,1.80
2023-03-14T02:44:10.437Z,1.80
2023-03-14T02:46:37.176Z,1.90
2023-03-14T02:49:07.412Z,1.90
2023-03-14T02:51:34.466Z,1.80
2023-03-14T02:54:01.204Z,1.90
2023-03-14T02:56:27.942Z,2.08
2023-03-14T02:58:55.361Z,1.65
2023-03-14T03:01:41.387Z,1.85
2023-03-14T03:04:08.711Z,1.92
2023-03-14T03:06:35.461Z,1.85
2023-03-14T03:09:02.357Z,2.00
2023-03-14T03:11:29.787Z,1.83
2023-03-14T03:13:56.627Z,1.77
2023-03-14T03:16:23.878Z,2.00
2023-03-14T03:18:50.676Z,1.90
2023-03-14T03:21:17.427Z,1.98
2023-03-14T03:23:44.136Z,2.30
2023-03-14T03:26:11.984Z,2.25
2023-03-14T03:28:38.733Z,2.20
2023-03-14T03:31:11.225Z,2.10
2023-03-14T03:33:39.504Z,2.05
2023-03-14T03:36:07.282Z,2.00
2023-03-14T03:38:37.097Z,2.17
2023-03-14T03:41:08.872Z,2.05
2023-03-14T03:43:36.246Z,2.10
2023-03-14T03:46:06.171Z,2.20
2023-03-14T03:48:33.469Z,1.92
2023-03-14T03:51:03.427Z,2.10
2023-03-14T03:53:33.859Z,2.28
2023-03-14T03:56:04.672Z,1.92
2023-03-14T03:58:31.433Z,2.17
2023-03-14T04:00:58.259Z,1.80
2023-03-14T04:03:25.170Z,2.25
2023-03-14T04:06:10.080Z,1.77
2023-03-14T04:08:39.852Z,2.35
2023-03-14T04:11:06.800Z,2.20
2023-03-14T04:13:48.087Z,2.15
2023-03-14T04:16:18.073Z,2.10
2023-03-14T04:18:44.937Z,2.15
2023-03-14T04:21:11.739Z,2.00
2023-03-14T04:23:47.948Z,2.10
2023-03-14T04:26:16.051Z,2.30
2023-03-14T04:28:43.385Z,1.88
2023-03-14T04:31:12.912Z,2.20
2023-03-14T04:33:40.696Z,1.95
2023-03-14T04:36:08.656Z,1.98
2023-03-14T04:38:35.882Z,1.80
2023-03-14T04:41:03.332Z,1.90
2023-03-14T04:43:32.614Z,1.85
2023-03-14T04:46:04.579Z,2.03
2023-03-14T04:48:31.493Z,1.63
2023-03-14T04:50:59.447Z,2.38
2023-03-14T04:55:59.317Z,2.15
2023-03-14T04:58:32.816Z,1.88
2023-03-14T05:01:05.672Z,1.80
2023-03-14T05:03:44.998Z,1.88
2023-03-14T05:06:21.355Z,1.67
2023-03-14T05:09:08.428Z,1.70
2023-03-14T05:11:45.625Z,1.52
2023-03-14T05:14:23.654Z,1.67
2023-03-14T05:17:15.512Z,1.77
2023-03-14T05:20:05.287Z,2.17
2023-03-14T05:22:50.947Z,1.98
2023-03-14T05:25:36.394Z,1.88
2023-03-14T05:28:13.385Z,1.80
2023-03-14T05:31:08.146Z,1.77
2023-03-14T05:33:48.989Z,1.60
2023-03-14T05:36:30.064Z,1.73
2023-03-14T05:39:14.593Z,1.83
2023-03-14T05:41:59.781Z,1.70
2023-03-14T05:44:40.860Z,1.80
2023-03-14T05:47:43.060Z,1.80
2023-03-14T05:50:27.597Z,1.73
2023-03-14T05:53:04.982Z,1.90
2023-03-14T05:55:55.872Z,2.00
2023-03-14T05:58:48.672Z,1.80
2023-03-14T06:01:38.196Z,1.88
2023-03-14T06:04:14.492Z,1.90
2023-03-14T06:06:41.925Z,1.83
2023-03-14T06:09:10.544Z,2.03
2023-03-14T06:11:39.691Z,2.08
2023-03-14T06:14:07.623Z,1.80
2023-03-14T06:16:34.848Z,1.92
2023-03-14T06:19:01.918Z,2.05
2023-03-14T06:21:30.149Z,1.95
2023-03-14T06:23:57.443Z,2.08
2023-03-14T06:26:25.966Z,1.88
2023-03-14T06:28:55.575Z,2.00
2023-03-14T06:31:22.408Z,1.80
2023-03-14T06:33:56.908Z,1.90
2023-03-14T06:36:28.174Z,2.00
2023-03-14T06:38:55.034Z,1.95
2023-03-14T06:41:24.619Z,2.00
2023-03-14T06:46:18.236Z,1.90
2023-03-14T06:48:45.876Z,1.95
2023-03-14T06:51:13.466Z,2.00
2023-03-14T06:53:40.492Z,1.90
2023-03-14T06:56:08.402Z,1.90
2023-03-14T06:58:35.478Z,2.08
2023-03-14T07:01:05.811Z,1.90
2023-03-14T07:03:38.877Z,2.30
2023-03-14T07:06:06.453Z,2.08
2023-03-14T07:08:33.844Z,1.60
2023-03-14T07:11:01.819Z,1.92
2023-03-14T07:13:29.760Z,2.10
2023-03-14T07:16:06.268Z,1.80
2023-03-14T07:18:33.660Z,1.70
2023-03-14T07:21:04.104Z,1.90
2023-03-14T07:23:31.862Z,1.80
2023-03-14T07:25:58.652Z,2.15
2023-03-14T07:28:28.195Z,1.80
2023-03-14T07:31:04.803Z,1.80
2023-03-14T07:33:33.434Z,1.90
2023-03-14T07:36:01.428Z,1.80
2023-03-14T07:38:28.364Z,1.65
2023-03-14T07:41:10.665Z,1.83
2023-03-14T07:43:44.390Z,1.80
2023-03-14T07:46:11.159Z,2.17
2023-03-14T07:48:37.934Z,1.80
2023-03-14T07:51:04.766Z,1.60
2023-03-14T07:53:31.490Z,1.63
2023-03-14T07:55:58.309Z,1.42
2023-03-14T07:58:25.110Z,1.70
2023-03-14T08:00:52.603Z,1.40
2023-03-14T08:03:19.570Z,1.30
2023-03-14T08:05:49.213Z,1.20
2023-03-14T08:08:16.762Z,1.50
2023-03-14T08:10:43.722Z,1.33
2023-03-14T08:13:11.466Z,1.40
2023-03-14T08:15:39.811Z,1.27
2023-03-14T08:18:06.928Z,1.30
2023-03-14T08:20:33.982Z,1.30
2023-03-14T08:23:01.980Z,1.30
2023-03-14T08:25:29.235Z,0.95
2023-03-14T08:27:56.236Z,1.17
2023-03-14T08:30:23.796Z,1.13
2023-03-14T08:32:50.721Z,1.13
2023-03-14T08:35:17.472Z,1.05
2023-03-14T08:37:44.281Z,1.30
2023-03-14T08:40:12.643Z,1.20
2023-03-14T08:42:40.510Z,1.33
2023-03-14T08:45:09.532Z,1.10
2023-03-14T08:47:36.513Z,1.10
2023-03-14T08:50:05.176Z,0.98
2023-03-14T08:52:32.649Z,1.30
2023-03-14T08:54:59.676Z,1.17
2023-03-14T08:57:29.730Z,1.42
2023-03-14T08:59:57.528Z,1.25
2023-03-14T09:02:25.381Z,1.67
2023-03-14T09:04:52.386Z,1.48
2023-03-14T09:07:19.850Z,1.40
2023-03-14T09:09:46.625Z,1.30
2023-03-14T09:12:13.431Z,1.20
2023-03-14T09:14:40.419Z,1.27
2023-03-14T09:17:07.208Z,1.30
2023-03-14T09:19:33.982Z,1.10
2023-03-14T09:22:01.589Z,1.23
2023-03-14T09:24:28.298Z,1.20
2023-03-14T09:26:56.789Z,1.20
2023-03-14T09:29:23.786Z,1.25
2023-03-14T09:31:50.647Z,1.10
2023-03-14T09:34:17.461Z,1.45
2023-03-14T09:36:45.324Z,1.17
2023-03-14T09:39:12.710Z,1.10
2023-03-14T09:41:41.824Z,1.00
2023-03-14T09:44:13.108Z,0.90
2023-03-14T09:46:42.178Z,1.30
2023-03-14T09:49:18.892Z,1.20
2023-03-14T09:51:48.176Z,1.40
2023-03-14T09:54:32.652Z,1.08
2023-03-14T09:57:00.383Z,1.20
2023-03-14T09:59:28.464Z,1.42
2023-03-14T10:01:58.416Z,1.20
2023-03-14T10:04:25.301Z,0.98
2023-03-14T10:06:52.106Z,1.38
2023-03-14T10:09:26.159Z,1.05
2023-03-14T10:11:56.308Z,1.23
2023-03-14T10:14:35.069Z,1.20
2023-03-14T10:17:13.432Z,1.20
2023-03-14T10:19:55.092Z,1.05
2023-03-14T10:22:25.436Z,1.23
2023-03-14T10:24:57.732Z,1.08
2023-03-14T10:27:33.388Z,1.10
2023-03-14T10:30:02.935Z,1.27
2023-03-14T10:32:37.889Z,1.08
2023-03-14T10:35:25.248Z,1.10
2023-03-14T10:37:55.476Z,1.02
2023-03-14T10:40:27.104Z,1.00
2023-03-14T10:42:53.935Z,1.52
2023-03-14T10:45:52.355Z,1.35
2023-03-14T10:48:25.003Z,2.05
2023-03-14T10:51:04.865Z,1.70
2023-03-14T10:53:42.519Z,3.63
2023-03-14T10:56:14.025Z,2.70
2023-03-14T10:58:47.288Z,2.60
2023-03-14T11:01:40.436Z,2.47
2023-03-14T11:04:42.770Z,2.35
2023-03-14T11:07:25.631Z,2.50
2023-03-14T11:10:10.236Z,2.67
2023-03-14T11:12:46.796Z,2.35
2023-03-14T11:15:33.177Z,2.42
2023-03-14T11:18:29.475Z,2.75
2023-03-14T11:21:34.528Z,2.17
2023-03-14T11:24:09.448Z,2.28
2023-03-14T11:27:06.269Z,2.53
2023-03-14T11:29:54.346Z,2.47
2023-03-14T11:32:31.953Z,2.90
2023-03-14T11:35:00.815Z,2.50
2023-03-14T11:37:33.995Z,2.45
2023-03-14T11:40:18.487Z,2.47
2023-03-14T11:42:49.114Z,2.60
2023-03-14T11:45:29.185Z,2.45
2023-03-14T11:48:25.846Z,2.03
2023-03-14T11:50:55.370Z,2.65
2023-03-14T11:53:24.973Z,2.40
2023-03-14T11:55:52.281Z,2.40
2023-03-14T11:58:26.465Z,2.45
2023-03-14T12:00:55.406Z,2.80
2023-03-14T12:03:44.157Z,2.22
2023-03-14T12:06:17.457Z,2.63
2023-03-14T12:08:44.928Z,2.50
2023-03-14T12:11:28.034Z,2.78
2023-03-14T12:13:54.908Z,2.70
2023-03-14T12:16:24.829Z,3.03
2023-03-14T12:18:52.810Z,2.15
2023-03-14T12:21:19.876Z,2.40
2023-03-14T12:23:51.089Z,2.08
2023-03-14T12:26:26.178Z,3.13
2023-03-14T12:28:59.026Z,2.80
2023-03-14T12:31:32.358Z,2.40
2023-03-14T12:34:22.331Z,2.80
2023-03-14T12:36:50.033Z,2.67
2023-03-14T12:40:01.994Z,3.30
2023-03-14T12:42:44.024Z,3.13
2023-03-14T12:45:35.161Z,3.00
2023-03-14T12:48:24.190Z,4.45
2023-03-14T12:51:05.745Z,3.15
2023-03-14T12:53:32.422Z,3.53
2023-03-14T12:56:36.764Z,3.00
2023-03-14T12:59:24.498Z,2.50
2023-03-14T13:02:16.204Z,2.97
2023-03-14T13:04:49.432Z,4.05
2023-03-14T13:07:32.980Z,3.00
2023-03-14T13:10:17.823Z,2.75
2023-03-14T13:12:49.931Z,2.60
2023-03-14T13:15:27.330Z,2.63
2023-03-14T13:17:57.983Z,2.60
2023-03-14T13:20:33.611Z,2.42
2023-03-14T13:23:00.504Z,2.60
2023-03-14T13:25:33.989Z,2.92
2023-03-14T13:28:02.430Z,2.70
2023-03-14T13:30:39.793Z,2.78
2023-03-14T13:33:06.968Z,2.80
2023-03-14T13:35:48.644Z,2.75
2023-03-14T13:38:21.294Z,2.50
2023-03-14T13:40:49.993Z,2.80
2023-03-14T13:43:26.326Z,6.90
2023-03-14T13:45:56.418Z,8.65
2023-03-14T13:48:27.721Z,4.80
2023-03-14T13:51:06.566Z,4.38
2023-03-14T13:53:43.186Z,5.82
2023-03-14T13:56:10.987Z,6.68
2023-03-14T13:58:39.346Z,7.30
2023-03-14T14:01:20.256Z,6.07
2023-03-14T14:03:52.244Z,3.00
2023-03-14T14:06:31.497Z,2.55
2023-03-14T14:09:01.026Z,2.38
2023-03-14T14:12:14.529Z,2.40
2023-03-14T14:14:45.411Z,2.20
2023-03-14T14:17:16.749Z,2.33
2023-03-14T14:19:44.460Z,2.38
2023-03-14T14:22:11.870Z,2.28
2023-03-14T14:24:39.021Z,2.28
2023-03-14T14:27:10.491Z,2.30
2023-03-14T14:29:37.587Z,2.10
2023-03-14T14:32:12.606Z,2.30
2023-03-14T14:35:00.126Z,2.22
2023-03-14T14:37:28.249Z,2.38
2023-03-14T14:40:00.359Z,1.95
2023-03-14T14:42:33.233Z,2.00
2023-03-14T14:45:00.890Z,2.40
2023-03-14T14:47:29.753Z,2.30
2023-03-14T14:52:45.070Z,2.65
2023-03-14T14:55:14.855Z,2.35
2023-03-14T14:57:50.348Z,2.45
2023-03-14T15:00:23.252Z,2.25
2023-03-14T15:02:55.275Z,2.08
2023-03-14T15:05:24.680Z,2.10
2023-03-14T15:07:51.694Z,2.30
2023-03-14T15:10:24.562Z,2.22
2023-03-14T15:12:51.755Z,2.33
2023-03-14T15:15:18.943Z,2.30
2023-03-14T15:17:45.894Z,2.08
2023-03-14T15:20:17.592Z,3.60
2023-03-14T15:22:44.434Z,2.40
2023-03-14T15:25:31.649Z,2.20
2023-03-14T15:27:58.506Z,2.30
2023-03-14T15:30:25.857Z,1.83
2023-03-14T15:32:52.567Z,2.05
2023-03-14T15:35:19.280Z,2.00
2023-03-14T15:37:46.288Z,2.35
2023-03-14T15:40:15.032Z,2.10
2023-03-14T15:42:42.252Z,2.08
2023-03-14T15:45:09.871Z,2.47
2023-03-14T15:47:36.595Z,2.15
2023-03-14T15:50:03.873Z,2.15
2023-03-14T15:52:30.720Z,2.10
2023-03-14T15:54:57.450Z,2.38
2023-03-14T15:57:24.347Z,2.33
2023-03-14T15:59:51.220Z,2.55
2023-03-14T16:02:18.012Z,2.20
2023-03-14T16:04:44.863Z,2.30
2023-03-14T16:07:11.722Z,2.13
2023-03-14T16:09:38.540Z,2.50
2023-03-14T16:12:05.945Z,2.30
2023-03-14T16:14:32.707Z,1.98
2023-03-14T16:17:00.181Z,2.20
2023-03-14T16:19:31.701Z,2.38
2023-03-14T16:21:58.398Z,1.83
2023-03-14T16:24:25.176Z,2.00
2023-03-14T16:26:51.914Z,2.03
2023-03-14T16:29:18.633Z,2.00
2023-03-14T16:31:45.437Z,2.20
2023-03-14T16:34:12.672Z,1.95
2023-03-14T16:36:39.538Z,2.25
2023-03-14T16:39:06.277Z,2.25
2023-03-14T16:41:33.317Z,2.03
2023-03-14T16:44:00.414Z,1.95
2023-03-14T16:46:28.683Z,1.83
2023-03-14T16:48:55.758Z,1.83
2023-03-14T16:51:23.713Z,2.08
2023-03-14T16:53:50.614Z,2.00
2023-03-14T16:56:17.364Z,1.85
2023-03-14T16:58:44.710Z,2.20
2023-03-14T17:01:13.551Z,1.85
2023-03-14T17:03:48.123Z,1.90
2023-03-14T17:06:26.840Z,2.20
2023-03-14T17:08:55.260Z,2.10
2023-03-14T17:11:23.655Z,2.07
2023-03-14T17:13:50.362Z,1.70
2023-03-14T17:16:17.341Z,2.17
2023-03-14T17:18:44.190Z,2.10
2023-03-14T17:21:10.940Z,2.03
2023-03-14T17:23:37.762Z,2.17
2023-03-14T17:26:04.685Z,2.15
2023-03-14T17:28:31.521Z,1.95
2023-03-14T17:31:06.369Z,2.40
2023-03-14T17:33:33.392Z,2.42
2023-03-14T17:36:00.193Z,2.22
2023-03-14T17:38:27.349Z,2.22
2023-03-14T17:40:54.401Z,2.20
2023-03-14T17:43:21.125Z,2.10
2023-03-14T17:45:47.841Z,2.30
2023-03-14T17:48:14.593Z,2.10
2023-03-14T17:50:41.482Z,1.77
2023-03-14T17:53:08.200Z,1.88
2023-03-14T17:55:34.946Z,2.00
2023-03-14T17:58:02.701Z,2.70
2023-03-14T18:00:29.485Z,2.47
2023-03-14T18:02:58.563Z,2.90
2023-03-14T18:05:26.594Z,2.92
2023-03-14T18:07:53.293Z,2.47
2023-03-14T18:10:21.418Z,2.60
2023-03-14T18:12:48.129Z,2.40
2023-03-14T18:15:14.847Z,2.35
2023-03-14T18:17:41.876Z,2.70
2023-03-14T18:20:12.642Z,2.25
2023-03-14T18:22:40.725Z,2.17
2023-03-14T18:25:09.619Z,2.30
2023-03-14T18:27:37.376Z,2.05
2023-03-14T18:30:04.850Z,2.10
2023-03-14T18:32:31.613Z,2.30
2023-03-14T18:34:58.339Z,2.17
2023-03-14T18:37:25.120Z,2.35
2023-03-14T18:39:51.900Z,1.92
2023-03-14T18:42:18.630Z,2.42
2023-03-14T18:44:45.410Z,2.00
2023-03-14T18:47:12.169Z,2.00
2023-03-14T18:49:38.963Z,2.15
2023-03-14T18:52:05.810Z,1.98
2023-03-14T18:54:32.578Z,1.80
2023-03-14T18:57:00.186Z,1.90
2023-03-14T18:59:27.144Z,2.03
2023-03-14T19:01:54.301Z,2.00
2023-03-14T19:04:21.165Z,2.10
2023-03-14T19:06:47.931Z,2.00
2023-03-14T19:09:15.725Z,2.33
2023-03-14T19:11:43.587Z,2.60
2023-03-14T19:14:11.421Z,2.17
2023-03-14T19:16:38.157Z,2.30
2023-03-14T19:19:04.944Z,2.17
2023-03-14T19:21:34.438Z,2.15
2023-03-14T19:26:32.709Z,2.40
2023-03-14T19:28:59.955Z,2.13
2023-03-14T19:31:27.212Z,2.35
2023-03-14T19:33:54.278Z,2.13
2023-03-14T19:36:26.829Z,2.00
2023-03-14T19:38:53.769Z,1.90
2023-03-14T19:41:21.483Z,2.40
2023-03-14T19:43:48.303Z,2.40
2023-03-14T19:46:15.175Z,2.22
2023-03-14T19:48:42.093Z,2.10
2023-03-14T19:51:09.693Z,2.40
2023-03-14T19:53:36.558Z,2.15
2023-03-14T19:56:04.660Z,2.50
2023-03-14T19:58:32.217Z,1.80
2023-03-14T20:00:58.996Z,2.03
2023-03-14T20:03:26.372Z,2.35
2023-03-14T20:05:53.765Z,1.70
2023-03-14T20:08:22.520Z,2.17
2023-03-14T20:10:49.421Z,2.10
2023-03-14T20:13:22.016Z,2.33
2023-03-14T20:15:49.686Z,2.35
2023-03-14T20:18:16.440Z,2.40
2023-03-14T20:20:43.153Z,2.35
2023-03-14T20:23:10.260Z,2.08
2023-03-14T20:25:37.761Z,2.05
2023-03-14T20:28:05.175Z,2.20
2023-03-14T20:30:32.348Z,2.50
2023-03-14T20:32:59.287Z,2.33
2023-03-14T20:35:26.173Z,2.30
2023-03-14T20:37:54.384Z,2.03
2023-03-14T20:40:24.037Z,2.38
2023-03-14T20:42:51.074Z,2.60
2023-03-14T20:45:18.001Z,2.45
2023-03-14T20:47:44.804Z,2.20
2023-03-14T20:50:11.990Z,2.30
2023-03-14T20:52:39.177Z,2.35
2023-03-14T20:55:06.421Z,2.72
2023-03-14T20:57:33.362Z,2.63
2023-03-14T21:00:00.235Z,2.58
2023-03-14T21:05:12.092Z,2.60
2023-03-14T21:07:41.554Z,2.65
2023-03-14T21:12:38.579Z,5.40
2023-03-14T21:15:06.897Z,3.78
2023-03-14T21:17:33.632Z,2.75
2023-03-14T21:20:00.466Z,2.40
2023-03-14T21:22:29.167Z,2.30
2023-03-14T21:24:56.508Z,2.40
2023-03-14T21:27:23.546Z,2.60
2023-03-14T21:29:50.232Z,2.33
2023-03-14T21:32:17.392Z,2.55
2023-03-14T21:34:44.372Z,2.50
2023-03-14T21:37:11.428Z,2.65
2023-03-14T21:39:38.141Z,5.65
2023-03-14T21:42:04.979Z,2.22
2023-03-14T21:44:36.986Z,2.55
2023-03-14T21:47:07.649Z,2.40
2023-03-14T21:49:41.049Z,3.08
2023-03-14T21:52:09.462Z,3.20
2023-03-14T21:54:36.106Z,4.45
2023-03-14T21:57:04.911Z,2.50
2023-03-14T21:59:34.164Z,2.70
2023-03-14T22:02:02.749Z,2.63
2023-03-14T22:04:36.483Z,2.50
2023-03-14T22:07:05.781Z,2.40
2023-03-14T22:09:33.343Z,3.67
2023-03-14T22:12:00.369Z,3.30
2023-03-14T22:14:27.285Z,3.92
2023-03-14T22:16:54.696Z,3.28
2023-03-14T22:19:21.685Z,2.70
2023-03-14T22:21:48.692Z,2.83
2023-03-14T22:24:15.583Z,2.75
2023-03-14T22:26:42.598Z,2.70
2023-03-14T22:29:09.419Z,2.67
2023-03-14T22:31:36.285Z,2.75
2023-03-14T22:34:03.168Z,2.65
2023-03-14T22:36:29.895Z,2.50
2023-03-14T22:38:56.540Z,2.50
2023-03-14T22:41:23.483Z,2.65
2023-03-14T22:43:50.446Z,3.10
2023-03-14T22:46:17.104Z,2.80
2023-03-14T22:48:43.740Z,2.72
2023-03-14T22:51:11.261Z,2.42
2023-03-14T22:53:38.235Z,2.92
2023-03-14T22:56:06.510Z,2.80
2023-03-14T22:58:33.474Z,2.72
2023-03-14T23:01:01.824Z,3.13
2023-03-14T23:03:28.643Z,2.85
2023-03-14T23:05:55.414Z,3.08
2023-03-14T23:08:22.076Z,2.70
2023-03-14T23:10:48.751Z,2.58
2023-03-14T23:13:15.548Z,2.95
2023-03-14T23:15:43.255Z,3.20
2023-03-14T23:18:11.890Z,2.60
2023-03-14T23:20:40.172Z,2.70
2023-03-14T23:23:13.513Z,2.80
2023-03-14T23:25:52.486Z,2.70
2023-03-14T23:28:22.944Z,2.53
2023-03-14T23:30:56.906Z,2.42
2023-03-14T23:33:24.343Z,2.30
2023-03-14T23:35:51.181Z,2.50
2023-03-14T23:38:18.090Z,2.50
2023-03-14T23:40:44.789Z,2.22
2023-03-14T23:43:11.741Z,2.17
2023-03-14T23:45:38.451Z,2.05
2023-03-14T23:48:05.686Z,1.90
2023-03-14T23:50:36.084Z,2.03
2023-03-14T23:53:02.794Z,1.92
2023-03-14T23:55:29.499Z,1.90
2023-03-14T23:57:56.173Z,2.00
